createdAt,value
2023-08-13T00:00:18.121Z,20.07
2023-08-13T00:01:17.838Z,20.03
2023-08-13T00:02:18.178Z,19.99
2023-08-13T00:03:18.000Z,19.94
2023-08-13T00:04:17.949Z,19.90
2023-08-13T00:05:17.975Z,19.89
2023-08-13T00:06:17.984Z,19.87
2023-08-13T00:07:17.984Z,19.92
2023-08-13T00:08:18.022Z,19.94
2023-08-13T00:09:18.055Z,19.92
2023-08-13T00:10:18.079Z,19.90
2023-08-13T00:11:18.107Z,19.93
2023-08-13T00:12:18.103Z,19.92
2023-08-13T00:13:18.115Z,19.89
2023-08-13T00:14:18.104Z,19.81
2023-08-13T00:15:18.146Z,19.78
2023-08-13T00:16:18.232Z,19.78
2023-08-13T00:17:18.277Z,19.75
2023-08-13T00:18:18.184Z,19.77
2023-08-13T00:19:18.180Z,19.79
2023-08-13T00:20:18.209Z,19.78
2023-08-13T00:21:18.219Z,19.75
2023-08-13T00:22:18.220Z,19.70
2023-08-13T00:23:18.231Z,19.70
2023-08-13T00:24:18.231Z,19.64
2023-08-13T00:25:18.232Z,19.60
2023-08-13T00:26:18.221Z,19.67
2023-08-13T00:27:18.227Z,19.67
2023-08-13T00:28:18.248Z,19.62
2023-08-13T00:29:18.257Z,19.59
2023-08-13T00:30:18.263Z,19.59
2023-08-13T00:31:18.336Z,19.62
2023-08-13T00:32:18.257Z,19.59
2023-08-13T00:33:18.241Z,19.55
2023-08-13T00:34:18.234Z,19.41
2023-08-13T00:35:18.238Z,19.44
2023-08-13T00:36:18.232Z,19.53
2023-08-13T00:37:18.232Z,19.52
2023-08-13T00:38:18.291Z,19.49
2023-08-13T00:39:18.360Z,19.49
2023-08-13T00:40:18.368Z,19.49
2023-08-13T00:41:18.356Z,19.39
2023-08-13T00:42:18.349Z,19.37
2023-08-13T00:43:18.361Z,19.29
2023-08-13T00:44:18.362Z,19.29
2023-08-13T00:45:18.363Z,19.35
2023-08-13T00:46:18.469Z,19.52
2023-08-13T00:47:18.444Z,19.49
2023-08-13T00:48:18.446Z,19.35
2023-08-13T00:49:18.443Z,19.42
2023-08-13T00:50:18.496Z,19.53
2023-08-13T00:51:18.508Z,19.53
2023-08-13T00:52:18.502Z,19.42
2023-08-13T00:53:18.504Z,19.44
2023-08-13T00:54:18.502Z,19.52
2023-08-13T00:55:18.575Z,19.57
2023-08-13T00:56:18.568Z,19.56
2023-08-13T00:57:18.639Z,19.52
2023-08-13T00:58:18.643Z,19.47
2023-08-13T00:59:18.668Z,19.56
2023-08-13T01:00:18.655Z,19.62
2023-08-13T01:01:18.828Z,19.66
2023-08-13T01:02:18.960Z,19.71
2023-08-13T01:03:18.785Z,19.75
2023-08-13T01:04:18.828Z,19.70
2023-08-13T01:05:18.822Z,19.67
2023-08-13T01:06:18.814Z,19.77
2023-08-13T01:07:18.837Z,19.79
2023-08-13T01:08:18.856Z,19.78
2023-08-13T01:09:18.873Z,19.72
2023-08-13T01:10:18.875Z,19.66
2023-08-13T01:11:18.887Z,19.64
2023-08-13T01:12:18.898Z,19.63
2023-08-13T01:13:18.907Z,19.66
2023-08-13T01:14:18.909Z,19.66
2023-08-13T01:15:18.916Z,19.71
2023-08-13T01:16:18.950Z,19.67
2023-08-13T01:17:18.930Z,19.56
2023-08-13T01:18:18.967Z,19.64
2023-08-13T01:19:18.951Z,19.66
2023-08-13T01:20:19.017Z,19.60
2023-08-13T01:21:19.013Z,19.60
2023-08-13T01:22:19.088Z,19.63
2023-08-13T01:23:19.129Z,19.70
2023-08-13T01:24:19.082Z,19.62
2023-08-13T01:25:19.114Z,19.70
2023-08-13T01:26:19.142Z,19.59
2023-08-13T01:27:19.142Z,19.62
2023-08-13T01:28:19.225Z,19.63
2023-08-13T01:29:19.226Z,19.64
2023-08-13T01:30:19.223Z,19.72
2023-08-13T01:31:19.304Z,19.74
2023-08-13T01:32:19.270Z,19.77
2023-08-13T01:33:19.274Z,19.62
2023-08-13T01:34:19.339Z,19.57
2023-08-13T01:35:19.327Z,19.70
2023-08-13T01:36:19.312Z,19.70
2023-08-13T01:37:19.302Z,19.72
2023-08-13T01:38:19.304Z,19.77
2023-08-13T01:39:19.323Z,19.77
2023-08-13T01:40:19.316Z,19.72
2023-08-13T01:41:19.336Z,19.75
2023-08-13T01:42:19.328Z,19.75
2023-08-13T01:43:19.345Z,19.70
2023-08-13T01:44:19.332Z,19.78
2023-08-13T01:45:19.432Z,19.71
2023-08-13T01:46:19.315Z,19.64
2023-08-13T01:47:19.324Z,19.75
2023-08-13T01:48:19.335Z,19.78
2023-08-13T01:49:19.332Z,19.75
2023-08-13T01:50:19.390Z,19.75
2023-08-13T01:51:19.399Z,19.79
2023-08-13T01:52:19.415Z,19.74
2023-08-13T01:53:19.401Z,19.74
2023-08-13T01:54:19.386Z,19.81
2023-08-13T01:55:19.395Z,19.84
2023-08-13T01:56:19.392Z,19.92
2023-08-13T01:57:19.411Z,19.93
2023-08-13T01:58:19.400Z,19.90
2023-08-13T01:59:19.395Z,19.90
2023-08-13T02:00:19.404Z,19.93
2023-08-13T02:01:19.428Z,19.94
2023-08-13T02:02:19.481Z,19.97
2023-08-13T02:03:19.475Z,20.00
2023-08-13T02:04:19.466Z,19.97
2023-08-13T02:05:19.641Z,19.97
2023-08-13T02:06:19.612Z,19.97
2023-08-13T02:07:19.676Z,19.81
2023-08-13T02:08:19.673Z,19.82
2023-08-13T02:09:19.679Z,19.81
2023-08-13T02:10:19.681Z,19.79
2023-08-13T02:11:19.697Z,19.85
2023-08-13T02:12:20.002Z,19.81
2023-08-13T02:13:19.700Z,19.84
2023-08-13T02:14:19.678Z,19.85
2023-08-13T02:15:19.671Z,19.78
2023-08-13T02:16:19.728Z,19.71
2023-08-13T02:17:19.723Z,19.72
2023-08-13T02:18:19.744Z,19.62
2023-08-13T02:19:19.741Z,19.77
2023-08-13T02:20:19.761Z,19.77
2023-08-13T02:21:19.764Z,19.81
2023-08-13T02:22:19.797Z,19.75
2023-08-13T02:23:19.815Z,19.75
2023-08-13T02:24:19.810Z,19.71
2023-08-13T02:25:19.898Z,19.79
2023-08-13T02:26:19.929Z,19.82
2023-08-13T02:27:19.971Z,19.82
2023-08-13T02:28:20.049Z,19.77
2023-08-13T02:29:20.037Z,19.79
2023-08-13T02:30:20.039Z,19.81
2023-08-13T02:31:20.070Z,19.79
2023-08-13T02:32:20.074Z,19.77
2023-08-13T02:33:20.080Z,19.79
2023-08-13T02:34:20.109Z,19.84
2023-08-13T02:35:20.110Z,19.72
2023-08-13T02:36:20.099Z,19.64
2023-08-13T02:37:20.101Z,19.64
2023-08-13T02:38:20.091Z,19.74
2023-08-13T02:39:20.097Z,19.67
2023-08-13T02:40:20.121Z,19.62
2023-08-13T02:41:20.090Z,19.70
2023-08-13T02:42:20.104Z,19.78
2023-08-13T02:43:20.133Z,19.75
2023-08-13T02:44:20.131Z,19.84
2023-08-13T02:45:20.134Z,19.90
2023-08-13T02:46:20.150Z,19.93
2023-08-13T02:47:20.128Z,19.94
2023-08-13T02:48:20.210Z,19.97
2023-08-13T02:49:20.165Z,19.92
2023-08-13T02:50:20.151Z,19.90
2023-08-13T02:51:20.172Z,19.96
2023-08-13T02:52:20.196Z,19.97
2023-08-13T02:53:20.173Z,19.82
2023-08-13T02:54:20.173Z,19.90
2023-08-13T02:55:20.166Z,19.94
2023-08-13T02:56:20.178Z,19.97
2023-08-13T02:57:20.175Z,19.94
2023-08-13T02:58:20.180Z,19.82
2023-08-13T02:59:20.169Z,19.78
2023-08-13T03:00:20.171Z,19.87
2023-08-13T03:01:20.218Z,19.90
2023-08-13T03:02:20.200Z,19.85
2023-08-13T03:03:20.230Z,19.85
2023-08-13T03:04:20.234Z,19.90
2023-08-13T03:05:20.202Z,19.92
2023-08-13T03:06:20.284Z,19.92
2023-08-13T03:07:20.291Z,19.87
2023-08-13T03:08:20.284Z,19.90
2023-08-13T03:09:20.294Z,19.92
2023-08-13T03:10:20.290Z,19.89
2023-08-13T03:11:20.304Z,19.84
2023-08-13T03:12:20.323Z,19.82
2023-08-13T03:13:20.318Z,19.78
2023-08-13T03:14:20.321Z,19.77
2023-08-13T03:15:20.352Z,19.77
2023-08-13T03:16:20.369Z,19.74
2023-08-13T03:17:20.365Z,19.70
2023-08-13T03:18:20.356Z,19.62
2023-08-13T03:19:20.348Z,19.62
2023-08-13T03:20:20.339Z,19.56
2023-08-13T03:21:20.343Z,19.52
2023-08-13T03:22:20.349Z,19.47
2023-08-13T03:23:20.356Z,19.48
2023-08-13T03:24:20.354Z,19.52
2023-08-13T03:25:20.375Z,19.53
2023-08-13T03:26:20.373Z,19.42
2023-08-13T03:27:20.391Z,19.44
2023-08-13T03:28:20.395Z,19.45
2023-08-13T03:29:20.403Z,19.44
2023-08-13T03:30:20.416Z,19.39
2023-08-13T03:31:20.426Z,19.44
2023-08-13T03:32:20.406Z,19.48
2023-08-13T03:33:20.435Z,19.48
2023-08-13T03:34:20.433Z,19.45
2023-08-13T03:35:20.436Z,19.37
2023-08-13T03:36:20.448Z,19.35
2023-08-13T03:37:20.466Z,19.30
2023-08-13T03:38:20.506Z,19.29
2023-08-13T03:39:20.591Z,19.30
2023-08-13T03:40:20.596Z,19.35
2023-08-13T03:41:20.631Z,19.27
2023-08-13T03:42:20.640Z,19.27
2023-08-13T03:43:20.653Z,19.27
2023-08-13T03:44:20.671Z,19.27
2023-08-13T03:45:20.705Z,19.26
2023-08-13T03:46:20.786Z,19.34
2023-08-13T03:47:20.794Z,19.34
2023-08-13T03:48:20.835Z,19.38
2023-08-13T03:49:20.850Z,19.32
2023-08-13T03:50:20.882Z,19.35
2023-08-13T03:51:20.908Z,19.37
2023-08-13T03:52:20.924Z,19.38
2023-08-13T03:53:20.948Z,19.38
2023-08-13T03:54:20.966Z,19.30
2023-08-13T03:55:21.010Z,19.32
2023-08-13T03:56:21.092Z,19.30
2023-08-13T03:57:21.129Z,19.24
2023-08-13T03:58:21.152Z,19.20
2023-08-13T03:59:21.150Z,19.16
2023-08-13T04:00:21.138Z,19.12
2023-08-13T04:01:21.228Z,19.09
2023-08-13T04:02:21.282Z,19.04
2023-08-13T04:03:26.440Z,19.00
2023-08-13T04:04:21.326Z,19.07
2023-08-13T04:05:21.325Z,19.17
2023-08-13T04:06:21.368Z,19.15
2023-08-13T04:07:21.390Z,19.15
2023-08-13T04:08:21.454Z,19.09
2023-08-13T04:09:21.487Z,19.01
2023-08-13T04:10:21.442Z,19.01
2023-08-13T04:11:21.494Z,19.01
2023-08-13T04:12:21.502Z,18.97
2023-08-13T04:13:21.525Z,18.92
2023-08-13T04:14:21.557Z,18.88
2023-08-13T04:15:21.548Z,18.86
2023-08-13T04:16:21.640Z,18.89
2023-08-13T04:17:21.602Z,18.86
2023-08-13T04:18:21.638Z,18.92
2023-08-13T04:19:21.674Z,18.97
2023-08-13T04:20:21.695Z,19.04
2023-08-13T04:21:21.685Z,19.07
2023-08-13T04:22:22.451Z,19.05
2023-08-13T04:23:21.734Z,19.08
2023-08-13T04:24:21.740Z,19.09
2023-08-13T04:25:21.818Z,19.11
2023-08-13T04:26:21.813Z,19.07
2023-08-13T04:27:21.791Z,19.09
2023-08-13T04:28:21.853Z,19.11
2023-08-13T04:29:21.841Z,19.05
2023-08-13T04:30:21.855Z,19.00
2023-08-13T04:31:21.946Z,19.08
2023-08-13T04:32:21.933Z,19.15
2023-08-13T04:33:22.560Z,19.15
2023-08-13T04:34:21.955Z,19.16
2023-08-13T04:35:21.930Z,19.20
2023-08-13T04:36:22.016Z,19.23
2023-08-13T04:37:22.032Z,19.19
2023-08-13T04:38:22.050Z,19.19
2023-08-13T04:39:22.094Z,19.20
2023-08-13T04:40:22.110Z,19.29
2023-08-13T04:41:22.109Z,19.34
2023-08-13T04:42:22.110Z,19.35
2023-08-13T04:43:22.147Z,19.35
2023-08-13T04:44:22.200Z,19.37
2023-08-13T04:45:22.271Z,19.38
2023-08-13T04:46:22.270Z,19.35
2023-08-13T04:47:22.275Z,19.38
2023-08-13T04:48:22.280Z,19.35
2023-08-13T04:49:22.333Z,19.35
2023-08-13T04:50:22.331Z,19.41
2023-08-13T04:51:22.355Z,19.42
2023-08-13T04:52:22.313Z,19.44
2023-08-13T04:53:22.297Z,19.44
2023-08-13T04:54:22.336Z,19.42
2023-08-13T04:55:22.409Z,19.38
2023-08-13T04:56:22.475Z,19.44
2023-08-13T04:57:22.453Z,19.48
2023-08-13T04:58:22.507Z,19.55
2023-08-13T04:59:22.568Z,19.59
2023-08-13T05:00:22.632Z,19.60
2023-08-13T05:01:22.742Z,19.63
2023-08-13T05:02:22.705Z,19.60
2023-08-13T05:03:22.748Z,19.67
2023-08-13T05:04:22.871Z,19.75
2023-08-13T05:05:22.845Z,19.78
2023-08-13T05:06:22.915Z,19.84
2023-08-13T05:07:22.917Z,19.92
2023-08-13T05:08:22.885Z,19.99
2023-08-13T05:09:22.940Z,20.04
2023-08-13T05:10:22.979Z,20.12
2023-08-13T05:11:23.073Z,20.18
2023-08-13T05:12:23.046Z,20.26
2023-08-13T05:13:23.105Z,20.26
2023-08-13T05:14:23.121Z,20.22
2023-08-13T05:15:23.085Z,20.17
2023-08-13T05:16:23.281Z,20.14
2023-08-13T05:17:23.218Z,20.15
2023-08-13T05:18:23.214Z,20.24
2023-08-13T05:19:23.191Z,20.32
2023-08-13T05:20:23.201Z,20.37
2023-08-13T05:21:23.183Z,20.46
2023-08-13T05:22:23.226Z,20.58
2023-08-13T05:23:23.260Z,20.88
2023-08-13T05:24:23.290Z,21.19
2023-08-13T05:25:23.339Z,21.63
2023-08-13T05:26:23.354Z,21.85
2023-08-13T05:27:23.420Z,22.06
2023-08-13T05:28:23.437Z,22.23
2023-08-13T05:29:23.453Z,22.19
2023-08-13T05:30:23.479Z,21.99
2023-08-13T05:31:23.565Z,21.94
2023-08-13T05:32:23.573Z,21.78
2023-08-13T05:33:23.595Z,21.69
2023-08-13T05:34:23.635Z,21.40
2023-08-13T05:35:23.672Z,21.40
2023-08-13T05:36:23.697Z,21.43
2023-08-13T05:37:23.737Z,21.29
2023-08-13T05:38:23.758Z,21.17
2023-08-13T05:39:23.800Z,20.88
2023-08-13T05:40:23.836Z,20.83
2023-08-13T05:41:23.861Z,20.89
2023-08-13T05:42:23.903Z,21.07
2023-08-13T05:43:23.978Z,21.56
2023-08-13T05:44:23.961Z,21.74
2023-08-13T05:45:24.039Z,21.78
2023-08-13T05:46:23.960Z,21.69
2023-08-13T05:47:23.984Z,21.53
2023-08-13T05:48:23.980Z,21.50
2023-08-13T05:49:23.988Z,21.53
2023-08-13T05:50:23.999Z,21.53
2023-08-13T05:51:24.021Z,21.53
2023-08-13T05:52:24.057Z,21.40
2023-08-13T05:53:24.081Z,21.32
2023-08-13T05:54:24.081Z,21.48
2023-08-13T05:55:24.094Z,21.59
2023-08-13T05:56:24.106Z,21.38
2023-08-13T05:57:24.183Z,21.59
2023-08-13T05:58:24.181Z,21.65
2023-08-13T05:59:24.198Z,21.75
2023-08-13T06:00:24.306Z,22.07
2023-08-13T06:01:24.243Z,22.25
2023-08-13T06:02:24.287Z,22.43
2023-08-13T06:03:27.267Z,22.70
2023-08-13T06:04:24.278Z,22.93
2023-08-13T06:05:24.348Z,23.06
2023-08-13T06:06:24.345Z,23.25
2023-08-13T06:07:24.443Z,23.66
2023-08-13T06:08:24.432Z,23.63
2023-08-13T06:09:24.472Z,23.77
2023-08-13T06:10:24.504Z,23.85
2023-08-13T06:11:24.552Z,24.09
2023-08-13T06:12:24.550Z,23.49
2023-08-13T06:13:24.568Z,23.58
2023-08-13T06:14:24.588Z,23.77
2023-08-13T06:15:24.620Z,23.91
2023-08-13T06:16:24.652Z,23.91
2023-08-13T06:17:24.710Z,24.14
2023-08-13T06:18:24.686Z,24.18
2023-08-13T06:19:24.726Z,24.11
2023-08-13T06:20:24.774Z,24.14
2023-08-13T06:21:24.796Z,24.31
2023-08-13T06:22:24.851Z,24.32
2023-08-13T06:23:24.864Z,24.13
2023-08-13T06:24:24.883Z,24.34
2023-08-13T06:25:24.930Z,24.59
2023-08-13T06:26:24.935Z,24.88
2023-08-13T06:27:24.976Z,24.81
2023-08-13T06:28:24.971Z,24.66
2023-08-13T06:29:25.001Z,24.75
2023-08-13T06:30:25.029Z,24.47
2023-08-13T06:31:41.690Z,24.58
2023-08-13T06:32:25.098Z,24.74
2023-08-13T06:33:25.098Z,25.06
2023-08-13T06:34:25.092Z,25.22
2023-08-13T06:35:25.125Z,25.36
2023-08-13T06:36:25.141Z,25.73
2023-08-13T06:37:25.165Z,26.04
2023-08-13T06:38:25.300Z,25.58
2023-08-13T06:39:25.282Z,25.41
2023-08-13T06:40:25.286Z,25.25
2023-08-13T06:41:25.301Z,24.77
2023-08-13T06:42:25.319Z,24.88
2023-08-13T06:43:25.332Z,24.77
2023-08-13T06:44:25.368Z,24.82
2023-08-13T06:45:25.397Z,25.04
2023-08-13T06:46:25.423Z,25.11
2023-08-13T06:47:25.429Z,25.16
2023-08-13T06:48:25.411Z,25.37
2023-08-13T06:49:25.423Z,24.97
2023-08-13T06:50:25.442Z,25.37
2023-08-13T06:51:25.477Z,25.33
2023-08-13T06:52:25.555Z,24.77
2023-08-13T06:53:25.521Z,24.26
2023-08-13T06:54:25.584Z,24.84
2023-08-13T06:55:25.662Z,25.24
2023-08-13T06:56:25.636Z,25.14
2023-08-13T06:57:25.696Z,25.24
2023-08-13T06:58:25.754Z,25.37
2023-08-13T06:59:25.826Z,25.29
2023-08-13T07:00:38.585Z,24.82
2023-08-13T07:01:25.944Z,25.07
2023-08-13T07:02:25.978Z,25.24
2023-08-13T07:03:26.041Z,25.06
2023-08-13T07:04:26.130Z,25.26
2023-08-13T07:05:26.192Z,25.29
2023-08-13T07:06:26.184Z,25.44
2023-08-13T07:07:26.166Z,25.49
2023-08-13T07:08:26.255Z,25.62
2023-08-13T07:09:26.253Z,25.41
2023-08-13T07:10:26.243Z,25.06
2023-08-13T07:11:26.280Z,25.19
2023-08-13T07:12:26.374Z,25.31
2023-08-13T07:13:26.339Z,25.07
2023-08-13T07:14:26.411Z,25.44
2023-08-13T07:15:26.462Z,25.34
2023-08-13T07:16:26.586Z,25.43
2023-08-13T07:17:26.618Z,25.98
2023-08-13T07:18:26.605Z,26.06
2023-08-13T07:19:26.587Z,25.62
2023-08-13T07:20:26.632Z,25.93
2023-08-13T07:21:26.667Z,25.89
2023-08-13T07:22:26.662Z,25.24
2023-08-13T07:23:26.727Z,25.19
2023-08-13T07:24:26.807Z,25.24
2023-08-13T07:25:26.842Z,25.24
2023-08-13T07:26:26.835Z,25.31
2023-08-13T07:27:26.864Z,25.61
2023-08-13T07:28:26.895Z,26.10
2023-08-13T07:29:26.942Z,26.82
2023-08-13T07:30:26.950Z,26.79
2023-08-13T07:31:26.938Z,26.91
2023-08-13T07:32:27.008Z,26.52
2023-08-13T07:33:27.033Z,26.63
2023-08-13T07:34:27.100Z,27.18
2023-08-13T07:35:27.147Z,27.41
2023-08-13T07:36:27.128Z,27.43
2023-08-13T07:37:27.918Z,27.60
2023-08-13T07:38:27.214Z,27.44
2023-08-13T07:39:27.278Z,27.52
2023-08-13T07:40:27.283Z,26.71
2023-08-13T07:41:27.246Z,26.66
2023-08-13T07:42:27.291Z,26.19
2023-08-13T07:43:27.375Z,25.68
2023-08-13T07:44:27.336Z,25.19
2023-08-13T07:45:27.493Z,25.61
2023-08-13T07:46:27.475Z,26.56
2023-08-13T07:47:27.485Z,27.45
2023-08-13T07:48:27.486Z,28.27
2023-08-13T07:49:27.534Z,27.81
2023-08-13T07:50:27.578Z,27.76
2023-08-13T07:51:27.571Z,27.40
2023-08-13T07:52:27.622Z,27.25
2023-08-13T07:53:27.698Z,27.83
2023-08-13T07:54:27.652Z,27.48
2023-08-13T07:55:27.668Z,27.01
2023-08-13T07:56:27.736Z,27.07
2023-08-13T07:57:27.731Z,27.35
2023-08-13T07:58:27.778Z,28.12
2023-08-13T07:59:27.782Z,27.91
2023-08-13T08:00:27.847Z,27.90
2023-08-13T08:01:27.914Z,27.81
2023-08-13T08:02:27.973Z,28.01
2023-08-13T08:03:28.070Z,27.82
2023-08-13T08:04:28.083Z,28.37
2023-08-13T08:05:28.099Z,29.00
2023-08-13T08:06:29.216Z,28.55
2023-08-13T08:07:28.167Z,28.12
2023-08-13T08:08:28.221Z,27.90
2023-08-13T08:09:28.292Z,26.82
2023-08-13T08:10:28.311Z,27.10
2023-08-13T08:11:28.371Z,27.58
2023-08-13T08:12:28.383Z,28.22
2023-08-13T08:13:29.660Z,28.56
2023-08-13T08:14:28.385Z,28.37
2023-08-13T08:15:28.447Z,27.01
2023-08-13T08:16:28.452Z,26.96
2023-08-13T08:17:28.512Z,27.44
2023-08-13T08:18:28.488Z,27.53
2023-08-13T08:19:28.525Z,27.37
2023-08-13T08:20:28.534Z,27.95
2023-08-13T08:21:28.544Z,28.70
2023-08-13T08:22:28.594Z,29.15
2023-08-13T08:23:28.811Z,29.47
2023-08-13T08:27:20.634Z,29.02
2023-08-13T08:28:20.800Z,28.55
2023-08-13T08:29:21.634Z,27.98
2023-08-13T08:30:20.771Z,27.64
2023-08-13T08:31:20.786Z,28.15
2023-08-13T08:32:20.788Z,28.15
2023-08-13T08:33:20.824Z,28.08
2023-08-13T08:34:20.865Z,28.41
2023-08-13T08:35:20.882Z,28.84
2023-08-13T08:36:20.893Z,28.09
2023-08-13T08:37:20.915Z,28.64
2023-08-13T08:38:21.002Z,29.07
2023-08-13T08:39:21.056Z,28.75
2023-08-13T08:40:21.096Z,28.92
2023-08-13T08:41:21.113Z,28.80
2023-08-13T08:42:21.126Z,28.84
2023-08-13T08:43:21.140Z,29.10
2023-08-13T08:44:21.200Z,29.55
2023-08-13T08:45:21.315Z,29.55
2023-08-13T08:46:21.268Z,29.76
2023-08-13T08:47:21.302Z,30.32
2023-08-13T08:48:21.355Z,30.13
2023-08-13T08:49:21.405Z,30.40
2023-08-13T08:50:21.478Z,28.84
2023-08-13T08:51:21.506Z,28.78
2023-08-13T08:52:21.515Z,29.30
2023-08-13T08:53:21.541Z,29.86
2023-08-13T08:54:21.599Z,30.06
2023-08-13T08:55:21.634Z,30.49
2023-08-13T08:56:21.688Z,30.56
2023-08-13T08:57:21.769Z,29.67
2023-08-13T08:58:21.764Z,28.90
2023-08-13T08:59:21.816Z,28.94
2023-08-13T09:00:21.840Z,29.31
2023-08-13T09:01:21.936Z,29.81
2023-08-13T09:02:21.897Z,29.49
2023-08-13T09:03:21.965Z,29.27
2023-08-13T09:04:22.028Z,29.55
2023-08-13T09:05:22.057Z,29.39
2023-08-13T09:06:22.939Z,29.49
2023-08-13T09:07:22.180Z,29.55
2023-08-13T09:08:22.236Z,28.92
2023-08-13T09:09:22.271Z,28.55
2023-08-13T09:10:22.282Z,29.00
2023-08-13T09:11:22.325Z,29.43
2023-08-13T09:12:22.399Z,29.73
2023-08-13T09:13:22.407Z,30.33
2023-08-13T09:14:22.418Z,30.58
2023-08-13T09:15:22.399Z,30.70
2023-08-13T09:16:22.479Z,29.99
2023-08-13T09:17:22.531Z,28.90
2023-08-13T09:18:22.579Z,29.28
2023-08-13T09:19:22.607Z,28.57
2023-08-13T09:20:22.621Z,28.84
2023-08-13T09:21:22.615Z,29.24
2023-08-13T09:22:22.652Z,30.08
2023-08-13T09:23:22.632Z,29.80
2023-08-13T09:24:22.648Z,29.59
2023-08-13T09:25:22.672Z,29.86
2023-08-13T09:26:22.736Z,29.10
2023-08-13T09:27:22.793Z,27.86
2023-08-13T09:28:22.792Z,27.82
2023-08-13T09:29:22.819Z,27.64
2023-08-13T09:30:22.837Z,28.15
2023-08-13T09:31:22.935Z,28.55
2023-08-13T09:32:22.937Z,28.62
2023-08-13T09:33:22.989Z,28.23
2023-08-13T09:34:23.023Z,27.55
2023-08-13T09:35:23.017Z,27.23
2023-08-13T09:36:23.069Z,27.33
2023-08-13T09:37:23.072Z,28.27
2023-08-13T09:38:23.117Z,27.82
2023-08-13T09:39:23.160Z,28.75
2023-08-13T09:40:23.218Z,29.03
2023-08-13T09:41:23.164Z,28.90
2023-08-13T09:42:23.182Z,29.68
2023-08-13T09:43:23.209Z,29.83
2023-08-13T09:44:23.179Z,29.73
2023-08-13T09:45:23.211Z,29.69
2023-08-13T09:46:23.240Z,29.44
2023-08-13T09:47:23.271Z,29.18
2023-08-13T09:48:23.287Z,29.52
2023-08-13T09:49:23.318Z,29.18
2023-08-13T09:50:23.338Z,28.72
2023-08-13T09:51:33.544Z,28.70
2023-08-13T09:52:23.424Z,28.89
2023-08-13T09:53:23.459Z,29.44
2023-08-13T09:54:23.450Z,29.64
2023-08-13T09:55:23.499Z,29.16
2023-08-13T09:56:23.453Z,29.76
2023-08-13T09:57:23.460Z,29.86
2023-08-13T09:58:23.511Z,29.31
2023-08-13T09:59:23.550Z,29.71
2023-08-13T10:00:23.650Z,29.24
2023-08-13T10:01:23.708Z,28.94
2023-08-13T10:02:23.657Z,28.90
2023-08-13T10:03:23.813Z,28.93
2023-08-13T10:04:23.714Z,28.28
2023-08-13T10:05:23.724Z,28.80
2023-08-13T10:06:23.778Z,30.06
2023-08-13T10:07:23.775Z,30.77
2023-08-13T10:08:23.826Z,31.35
2023-08-13T10:09:23.859Z,31.35
2023-08-13T10:10:23.903Z,31.25
2023-08-13T10:11:23.918Z,31.51
2023-08-13T10:12:23.867Z,31.66
2023-08-13T10:13:23.873Z,31.28
2023-08-13T10:14:23.890Z,30.85
2023-08-13T10:15:23.929Z,30.61
2023-08-13T10:16:24.000Z,29.98
2023-08-13T10:17:24.092Z,29.79
2023-08-13T10:18:23.993Z,29.90
2023-08-13T10:19:24.069Z,29.87
2023-08-13T10:20:24.077Z,29.15
2023-08-13T10:21:24.127Z,29.37
2023-08-13T10:22:24.186Z,28.68
2023-08-13T10:23:24.255Z,28.82
2023-08-13T10:24:24.339Z,29.31
2023-08-13T10:25:24.293Z,29.79
2023-08-13T10:26:24.334Z,29.02
2023-08-13T10:27:24.340Z,29.30
2023-08-13T10:28:24.347Z,30.10
2023-08-13T10:29:24.424Z,30.58
2023-08-13T10:30:24.501Z,30.74
2023-08-13T10:31:24.569Z,31.14
2023-08-13T10:32:24.527Z,31.62
2023-08-13T10:33:24.535Z,32.16
2023-08-13T10:34:24.556Z,32.54
2023-08-13T10:35:24.569Z,32.73
2023-08-13T10:36:24.602Z,31.36
2023-08-13T10:37:24.628Z,30.32
2023-08-13T10:38:24.597Z,29.55
2023-08-13T10:39:24.663Z,29.55
2023-08-13T10:40:24.695Z,29.69
2023-08-13T10:41:24.773Z,30.05
2023-08-13T10:42:24.795Z,29.98
2023-08-13T10:43:24.863Z,30.06
2023-08-13T10:44:24.848Z,29.86
2023-08-13T10:45:24.847Z,30.03
2023-08-13T10:46:24.959Z,30.56
2023-08-13T10:47:24.920Z,30.74
2023-08-13T10:48:24.964Z,30.67
2023-08-13T10:49:25.148Z,30.78
2023-08-13T10:50:25.150Z,30.89
2023-08-13T10:51:25.171Z,30.69
2023-08-13T10:52:25.112Z,30.17
2023-08-13T10:53:25.215Z,30.02
2023-08-13T10:54:25.167Z,30.10
2023-08-13T10:55:25.191Z,30.40
2023-08-13T10:56:25.196Z,30.21
2023-08-13T10:57:25.221Z,30.39
2023-08-13T10:58:25.276Z,30.08
2023-08-13T10:59:25.542Z,30.03
2023-08-13T11:00:25.354Z,30.44
2023-08-13T11:01:25.283Z,30.46
2023-08-13T11:02:25.806Z,30.86
2023-08-13T11:03:25.487Z,31.02
2023-08-13T11:04:25.334Z,30.48
2023-08-13T11:05:25.370Z,30.58
2023-08-13T11:06:25.372Z,30.61
2023-08-13T11:07:25.395Z,30.49
2023-08-13T11:08:37.864Z,30.98
2023-08-13T11:09:37.557Z,30.65
2023-08-13T11:10:25.487Z,30.80
2023-08-13T11:11:25.681Z,30.51
2023-08-13T11:12:25.581Z,30.10
2023-08-13T11:13:25.622Z,30.10
2023-08-13T11:14:25.660Z,29.74
2023-08-13T11:15:25.601Z,29.18
2023-08-13T11:16:25.653Z,29.27
2023-08-13T11:17:25.649Z,29.30
2023-08-13T11:18:25.595Z,29.35
2023-08-13T11:19:25.656Z,29.15
2023-08-13T11:20:25.673Z,29.69
2023-08-13T11:21:25.691Z,29.65
2023-08-13T11:22:25.746Z,29.58
2023-08-13T11:23:25.753Z,29.57
2023-08-13T11:24:25.839Z,29.02
2023-08-13T11:25:25.822Z,29.03
2023-08-13T11:26:25.821Z,28.80
2023-08-13T11:27:25.811Z,29.37
2023-08-13T11:28:25.853Z,29.00
2023-08-13T11:29:25.932Z,29.05
2023-08-13T11:30:25.917Z,29.65
2023-08-13T11:31:25.900Z,30.17
2023-08-13T11:32:25.930Z,30.58
2023-08-13T11:33:26.294Z,30.80
2023-08-13T11:34:25.976Z,30.81
2023-08-13T11:35:26.064Z,31.20
2023-08-13T11:36:26.102Z,31.47
2023-08-13T11:37:26.104Z,31.30
2023-08-13T11:38:26.101Z,30.88
2023-08-13T11:39:28.696Z,30.71
2023-08-13T11:40:34.419Z,30.76
2023-08-13T11:41:26.197Z,30.65
2023-08-13T11:42:26.377Z,30.17
2023-08-13T11:43:26.349Z,30.03
2023-08-13T11:44:26.333Z,30.16
2023-08-13T11:45:26.432Z,30.78
2023-08-13T11:46:26.387Z,31.44
2023-08-13T11:47:26.437Z,31.87
2023-08-13T11:48:26.435Z,32.26
2023-08-13T11:49:26.436Z,32.53
2023-08-13T11:50:26.501Z,33.00
2023-08-13T11:51:26.493Z,32.91
2023-08-13T11:52:26.661Z,32.86
2023-08-13T11:53:26.614Z,31.64
2023-08-13T11:54:26.655Z,30.70
2023-08-13T11:55:26.684Z,30.11
2023-08-13T11:56:26.755Z,30.01
2023-08-13T11:57:26.808Z,30.08
2023-08-13T11:58:26.807Z,29.94
2023-08-13T11:59:26.784Z,29.69
2023-08-13T12:00:26.841Z,29.76
2023-08-13T12:01:26.947Z,29.58
2023-08-13T12:02:26.880Z,29.65
2023-08-13T12:03:26.979Z,29.69
2023-08-13T12:04:28.914Z,29.71
2023-08-13T12:05:27.015Z,29.84
2023-08-13T12:06:27.066Z,29.84
2023-08-13T12:07:27.121Z,30.06
2023-08-13T12:08:27.170Z,30.06
2023-08-13T12:09:27.233Z,30.59
2023-08-13T12:10:27.291Z,30.77
2023-08-13T12:11:27.359Z,30.21
2023-08-13T12:12:27.341Z,30.17
2023-08-13T12:13:27.309Z,30.13
2023-08-13T12:14:27.412Z,30.20
2023-08-13T12:15:27.579Z,29.99
2023-08-13T12:16:27.936Z,30.08
2023-08-13T12:17:28.378Z,30.18
2023-08-13T12:18:27.557Z,30.81
2023-08-13T12:19:27.452Z,30.69
2023-08-13T12:20:27.565Z,30.32
2023-08-13T12:21:27.564Z,30.26
2023-08-13T12:22:27.733Z,29.69
2023-08-13T12:23:28.591Z,29.80
2023-08-13T12:24:27.799Z,29.99
2023-08-13T12:25:27.816Z,29.92
2023-08-13T12:26:27.678Z,29.95
2023-08-13T12:27:28.048Z,30.11
2023-08-13T12:28:27.826Z,29.76
2023-08-13T12:29:29.028Z,29.59
2023-08-13T12:30:27.965Z,29.62
2023-08-13T12:31:27.948Z,29.68
2023-08-13T12:32:28.893Z,29.77
2023-08-13T12:33:28.177Z,30.17
2023-08-13T12:34:27.949Z,30.02
2023-08-13T12:35:27.992Z,29.67
2023-08-13T12:36:29.470Z,29.53
2023-08-13T12:37:28.075Z,29.64
2023-08-13T12:38:28.237Z,29.77
2023-08-13T12:39:28.194Z,30.05
2023-08-13T12:40:28.281Z,30.31
2023-08-13T12:41:39.305Z,29.53
2023-08-13T12:42:28.270Z,29.64
2023-08-13T12:43:28.447Z,30.10
2023-08-13T12:44:28.306Z,30.49
2023-08-13T12:45:28.329Z,30.05
2023-08-13T12:46:28.380Z,29.73
2023-08-13T12:47:28.396Z,30.01
2023-08-13T12:48:28.417Z,30.33
2023-08-13T12:49:28.430Z,30.51
2023-08-13T12:50:28.604Z,30.29
2023-08-13T12:51:28.544Z,30.62
2023-08-13T12:52:28.752Z,30.56
2023-08-13T12:53:28.670Z,30.39
2023-08-13T12:54:28.621Z,30.74
2023-08-13T12:55:28.667Z,30.77